sensor_id;sensor_type;location;lat;lon;timestamp;temperature;humidity
336;DHT22;156;48.738;9.228;2023-08-07T00:01:19;11.20;99.90
336;DHT22;156;48.738;9.228;2023-08-07T00:03:46;11.20;99.90
336;DHT22;156;48.738;9.228;2023-08-07T00:06:13;11.30;99.90
336;DHT22;156;48.738;9.228;2023-08-07T00:08:41;11.30;99.90
336;DHT22;156;48.738;9.228;2023-08-07T00:11:09;11.30;99.90
336;DHT22;156;48.738;9.228;2023-08-07T00:13:36;11.20;99.90
336;DHT22;156;48.738;9.228;2023-08-07T00:16:03;11.20;99.90
336;DHT22;156;48.738;9.228;2023-08-07T00:18:30;11.20;99.90
336;DHT22;156;48.738;9.228;2023-08-07T00:20:57;11.20;99.90
336;DHT22;156;48.738;9.228;2023-08-07T00:23:24;11.20;99.90
336;DHT22;156;48.738;9.228;2023-08-07T00:25:52;11.20;99.90
336;DHT22;156;48.738;9.228;2023-08-07T00:28:19;11.20;99.90
336;DHT22;156;48.738;9.228;2023-08-07T00:30:46;11.20;99.90
336;DHT22;156;48.738;9.228;2023-08-07T00:33:13;11.20;99.90
336;DHT22;156;48.738;9.228;2023-08-07T00:35:40;11.20;99.90
336;DHT22;156;48.738;9.228;2023-08-07T00:38:07;11.20;99.90
336;DHT22;156;48.738;9.228;2023-08-07T00:40:37;11.20;99.90
336;DHT22;156;48.738;9.228;2023-08-07T00:43:06;11.20;99.90
336;DHT22;156;48.738;9.228;2023-08-07T00:45:36;11.20;99.90
336;DHT22;156;48.738;9.228;2023-08-07T00:48:04;11.20;99.90
336;DHT22;156;48.738;9.228;2023-08-07T00:50:32;11.20;99.90
336;DHT22;156;48.738;9.228;2023-08-07T00:52:59;11.20;99.90
336;DHT22;156;48.738;9.228;2023-08-07T00:55:27;11.20;99.90
336;DHT22;156;48.738;9.228;2023-08-07T00:57:54;11.20;99.90
336;DHT22;156;48.738;9.228;2023-08-07T01:00:23;11.20;99.90
336;DHT22;156;48.738;9.228;2023-08-07T01:02:50;11.20;99.90
336;DHT22;156;48.738;9.228;2023-08-07T01:05:18;11.20;99.90
336;DHT22;156;48.738;9.228;2023-08-07T01:07:47;11.20;99.90
336;DHT22;156;48.738;9.228;2023-08-07T01:10:17;11.20;99.90
336;DHT22;156;48.738;9.228;2023-08-07T01:12:50;11.10;99.90
336;DHT22;156;48.738;9.228;2023-08-07T01:15:25;11.20;99.90
336;DHT22;156;48.738;9.228;2023-08-07T01:17:57;11.10;99.90
336;DHT22;156;48.738;9.228;2023-08-07T01:20:25;11.10;99.90
336;DHT22;156;48.738;9.228;2023-08-07T01:22:53;11.20;99.90
336;DHT22;156;48.738;9.228;2023-08-07T01:25:20;11.10;99.90
336;DHT22;156;48.738;9.228;2023-08-07T01:27:53;11.20;99.90
336;DHT22;156;48.738;9.228;2023-08-07T01:30:28;11.10;99.90
336;DHT22;156;48.738;9.228;2023-08-07T01:33:01;11.20;99.90
336;DHT22;156;48.738;9.228;2023-08-07T01:35:33;11.20;99.90
336;DHT22;156;48.738;9.228;2023-08-07T01:38:02;11.20;99.90
336;DHT22;156;48.738;9.228;2023-08-07T01:40:30;11.20;99.90
336;DHT22;156;48.738;9.228;2023-08-07T01:46:01;11.20;99.90
336;DHT22;156;48.738;9.228;2023-08-07T01:48:28;11.20;99.90
336;DHT22;156;48.738;9.228;2023-08-07T01:50:55;11.20;99.90
336;DHT22;156;48.738;9.228;2023-08-07T01:53:23;11.20;99.90
336;DHT22;156;48.738;9.228;2023-08-07T01:55:50;11.20;99.90
336;DHT22;156;48.738;9.228;2023-08-07T01:58:17;11.20;99.90
336;DHT22;156;48.738;9.228;2023-08-07T02:00:44;11.20;99.90
336;DHT22;156;48.738;9.228;2023-08-07T02:03:11;11.30;99.90
336;DHT22;156;48.738;9.228;2023-08-07T02:05:38;9.20;99.90
336;DHT22;156;48.738;9.228;2023-08-07T02:08:05;11.30;99.90
336;DHT22;156;48.738;9.228;2023-08-07T02:10:37;11.30;99.90
336;DHT22;156;48.738;9.228;2023-08-07T02:13:09;11.30;99.90
336;DHT22;156;48.738;9.228;2023-08-07T02:15:36;11.30;99.90
336;DHT22;156;48.738;9.228;2023-08-07T02:18:03;11.30;99.90
336;DHT22;156;48.738;9.228;2023-08-07T02:20:30;11.30;99.90
336;DHT22;156;48.738;9.228;2023-08-07T02:22:57;11.30;99.90
336;DHT22;156;48.738;9.228;2023-08-07T02:25:24;11.30;99.90
336;DHT22;156;48.738;9.228;2023-08-07T02:27:52;11.30;99.90
336;DHT22;156;48.738;9.228;2023-08-07T02:30:19;11.30;99.90
336;DHT22;156;48.738;9.228;2023-08-07T02:32:46;11.40;99.90
336;DHT22;156;48.738;9.228;2023-08-07T02:35:13;11.40;99.90
336;DHT22;156;48.738;9.228;2023-08-07T02:37:39;11.30;99.90
336;DHT22;156;48.738;9.228;2023-08-07T02:40:07;11.30;99.90
336;DHT22;156;48.738;9.228;2023-08-07T02:42:34;11.30;99.90
336;DHT22;156;48.738;9.228;2023-08-07T02:45:03;11.30;99.90
336;DHT22;156;48.738;9.228;2023-08-07T02:47:30;11.30;94.60
336;DHT22;156;48.738;9.228;2023-08-07T02:49:57;11.30;94.40
336;DHT22;156;48.738;9.228;2023-08-07T02:52:24;11.30;91.80
336;DHT22;156;48.738;9.228;2023-08-07T02:54:51;11.20;86.20
336;DHT22;156;48.738;9.228;2023-08-07T02:57:19;11.20;82.00
336;DHT22;156;48.738;9.228;2023-08-07T02:59:46;11.20;71.50
336;DHT22;156;48.738;9.228;2023-08-07T03:02:14;11.30;71.40
336;DHT22;156;48.738;9.228;2023-08-07T03:04:41;11.30;72.70
336;DHT22;156;48.738;9.228;2023-08-07T03:07:08;11.30;70.30
336;DHT22;156;48.738;9.228;2023-08-07T03:09:35;11.20;77.60
336;DHT22;156;48.738;9.228;2023-08-07T03:12:05;11.30;75.60
336;DHT22;156;48.738;9.228;2023-08-07T03:14:32;11.20;77.70
336;DHT22;156;48.738;9.228;2023-08-07T03:16:59;11.20;77.00
336;DHT22;156;48.738;9.228;2023-08-07T03:19:27;11.20;77.90
336;DHT22;156;48.738;9.228;2023-08-07T03:21:54;11.10;82.70
336;DHT22;156;48.738;9.228;2023-08-07T03:24:21;11.10;84.60
336;DHT22;156;48.738;9.228;2023-08-07T03:26:48;11.10;87.40
336;DHT22;156;48.738;9.228;2023-08-07T03:29:15;11.10;89.70
336;DHT22;156;48.738;9.228;2023-08-07T03:31:42;11.00;89.00
336;DHT22;156;48.738;9.228;2023-08-07T03:34:11;11.00;91.20
336;DHT22;156;48.738;9.228;2023-08-07T03:36:39;11.00;90.40
336;DHT22;156;48.738;9.228;2023-08-07T03:39:06;11.00;93.20
336;DHT22;156;48.738;9.228;2023-08-07T03:41:33;11.00;93.20
336;DHT22;156;48.738;9.228;2023-08-07T03:44:03;11.00;93.10
336;DHT22;156;48.738;9.228;2023-08-07T03:46:32;11.00;93.80
336;DHT22;156;48.738;9.228;2023-08-07T03:48:59;11.00;93.90
336;DHT22;156;48.738;9.228;2023-08-07T03:51:26;11.00;93.50
336;DHT22;156;48.738;9.228;2023-08-07T03:53:56;10.90;94.90
336;DHT22;156;48.738;9.228;2023-08-07T03:56:23;11.00;94.40
336;DHT22;156;48.738;9.228;2023-08-07T03:58:50;11.00;94.20
336;DHT22;156;48.738;9.228;2023-08-07T04:01:16;11.00;93.70
336;DHT22;156;48.738;9.228;2023-08-07T04:03:46;11.00;93.50
336;DHT22;156;48.738;9.228;2023-08-07T04:06:13;11.00;92.30
336;DHT22;156;48.738;9.228;2023-08-07T04:08:41;11.00;93.50
336;DHT22;156;48.738;9.228;2023-08-07T04:11:09;11.00;93.90
336;DHT22;156;48.738;9.228;2023-08-07T04:13:36;11.10;95.60
336;DHT22;156;48.738;9.228;2023-08-07T04:16:04;11.00;95.90
336;DHT22;156;48.738;9.228;2023-08-07T04:18:31;10.90;96.90
336;DHT22;156;48.738;9.228;2023-08-07T04:20:58;10.90;98.30
336;DHT22;156;48.738;9.228;2023-08-07T04:23:28;10.90;99.00
336;DHT22;156;48.738;9.228;2023-08-07T04:25:57;10.90;98.60
336;DHT22;156;48.738;9.228;2023-08-07T04:28:27;10.90;98.50
336;DHT22;156;48.738;9.228;2023-08-07T04:30:56;10.90;98.30
336;DHT22;156;48.738;9.228;2023-08-07T04:33:24;10.90;99.10
336;DHT22;156;48.738;9.228;2023-08-07T04:35:51;10.90;98.90
336;DHT22;156;48.738;9.228;2023-08-07T04:38:20;10.80;99.30
336;DHT22;156;48.738;9.228;2023-08-07T04:40:47;10.90;99.30
336;DHT22;156;48.738;9.228;2023-08-07T04:43:14;10.90;96.80
336;DHT22;156;48.738;9.228;2023-08-07T04:45:43;10.90;96.00
336;DHT22;156;48.738;9.228;2023-08-07T04:48:11;11.00;95.10
336;DHT22;156;48.738;9.228;2023-08-07T04:50:38;11.00;93.20
336;DHT22;156;48.738;9.228;2023-08-07T04:53:05;11.10;90.40
336;DHT22;156;48.738;9.228;2023-08-07T04:55:33;11.10;90.10
336;DHT22;156;48.738;9.228;2023-08-07T04:58:00;11.10;90.20
336;DHT22;156;48.738;9.228;2023-08-07T05:00:27;11.50;86.80
336;DHT22;156;48.738;9.228;2023-08-07T05:02:58;11.20;84.60
336;DHT22;156;48.738;9.228;2023-08-07T05:05:25;11.20;83.50
336;DHT22;156;48.738;9.228;2023-08-07T05:07:55;11.20;85.40
336;DHT22;156;48.738;9.228;2023-08-07T05:10:23;11.30;85.00
336;DHT22;156;48.738;9.228;2023-08-07T05:12:50;11.20;83.00
336;DHT22;156;48.738;9.228;2023-08-07T05:15:20;11.20;81.70
336;DHT22;156;48.738;9.228;2023-08-07T05:17:48;11.20;82.00
336;DHT22;156;48.738;9.228;2023-08-07T05:20:17;11.30;80.10
336;DHT22;156;48.738;9.228;2023-08-07T05:22:44;11.30;78.40
336;DHT22;156;48.738;9.228;2023-08-07T05:25:12;11.40;77.60
336;DHT22;156;48.738;9.228;2023-08-07T05:27:41;11.40;75.40
336;DHT22;156;48.738;9.228;2023-08-07T05:30:11;11.40;77.00
336;DHT22;156;48.738;9.228;2023-08-07T05:32:41;11.40;76.00
336;DHT22;156;48.738;9.228;2023-08-07T05:35:08;11.40;71.10
336;DHT22;156;48.738;9.228;2023-08-07T05:37:37;11.40;69.40
336;DHT22;156;48.738;9.228;2023-08-07T05:40:05;11.50;74.20
336;DHT22;156;48.738;9.228;2023-08-07T05:42:32;11.50;70.30
336;DHT22;156;48.738;9.228;2023-08-07T05:45:00;11.60;61.40
336;DHT22;156;48.738;9.228;2023-08-07T05:47:27;11.60;61.30
336;DHT22;156;48.738;9.228;2023-08-07T05:49:57;11.70;64.30
336;DHT22;156;48.738;9.228;2023-08-07T05:52:24;11.80;62.10
336;DHT22;156;48.738;9.228;2023-08-07T05:54:52;11.80;58.90
336;DHT22;156;48.738;9.228;2023-08-07T05:57:19;11.80;58.20
336;DHT22;156;48.738;9.228;2023-08-07T05:59:46;11.80;57.00
336;DHT22;156;48.738;9.228;2023-08-07T06:02:13;11.80;50.10
336;DHT22;156;48.738;9.228;2023-08-07T06:04:40;11.90;50.30
336;DHT22;156;48.738;9.228;2023-08-07T06:07:07;11.90;43.60
336;DHT22;156;48.738;9.228;2023-08-07T06:09:34;11.90;46.20
336;DHT22;156;48.738;9.228;2023-08-07T06:12:04;11.90;43.20
336;DHT22;156;48.738;9.228;2023-08-07T06:14:31;12.00;44.00
336;DHT22;156;48.738;9.228;2023-08-07T06:16:58;12.10;39.30
336;DHT22;156;48.738;9.228;2023-08-07T06:19:26;12.10;33.30
336;DHT22;156;48.738;9.228;2023-08-07T06:21:54;12.00;31.30
336;DHT22;156;48.738;9.228;2023-08-07T06:24:21;12.10;36.30
336;DHT22;156;48.738;9.228;2023-08-07T06:26:49;12.10;34.70
336;DHT22;156;48.738;9.228;2023-08-07T06:29:18;12.10;36.10
336;DHT22;156;48.738;9.228;2023-08-07T06:31:44;12.20;34.40
336;DHT22;156;48.738;9.228;2023-08-07T06:34:11;12.20;30.10
336;DHT22;156;48.738;9.228;2023-08-07T06:36:38;12.20;33.90
336;DHT22;156;48.738;9.228;2023-08-07T06:39:05;12.30;35.50
336;DHT22;156;48.738;9.228;2023-08-07T06:41:34;12.30;38.80
336;DHT22;156;48.738;9.228;2023-08-07T06:44:01;12.30;37.10
336;DHT22;156;48.738;9.228;2023-08-07T06:46:30;12.30;35.20
336;DHT22;156;48.738;9.228;2023-08-07T06:48:57;12.30;37.50
336;DHT22;156;48.738;9.228;2023-08-07T06:51:23;12.30;40.10
336;DHT22;156;48.738;9.228;2023-08-07T06:53:50;12.30;38.50
336;DHT22;156;48.738;9.228;2023-08-07T06:56:17;12.40;37.90
336;DHT22;156;48.738;9.228;2023-08-07T06:58:44;12.50;37.60
336;DHT22;156;48.738;9.228;2023-08-07T07:01:11;12.50;30.80
336;DHT22;156;48.738;9.228;2023-08-07T07:03:39;12.60;19.60
336;DHT22;156;48.738;9.228;2023-08-07T07:06:06;12.60;12.40
336;DHT22;156;48.738;9.228;2023-08-07T07:08:37;12.60;12.80
336;DHT22;156;48.738;9.228;2023-08-07T07:11:06;12.70;23.50
336;DHT22;156;48.738;9.228;2023-08-07T07:13:34;12.70;13.30
336;DHT22;156;48.738;9.228;2023-08-07T07:16:00;12.80;12.00
336;DHT22;156;48.738;9.228;2023-08-07T07:18:30;12.80;6.30
336;DHT22;156;48.738;9.228;2023-08-07T07:20:59;13.00;4.20
336;DHT22;156;48.738;9.228;2023-08-07T07:23:26;13.00;3.50
336;DHT22;156;48.738;9.228;2023-08-07T07:25:53;13.00;1.00
336;DHT22;156;48.738;9.228;2023-08-07T07:28:20;13.00;1.00
336;DHT22;156;48.738;9.228;2023-08-07T07:30:47;13.00;1.00
336;DHT22;156;48.738;9.228;2023-08-07T07:33:14;13.00;1.00
336;DHT22;156;48.738;9.228;2023-08-07T07:35:41;13.10;1.00
336;DHT22;156;48.738;9.228;2023-08-07T07:38:10;12.90;1.00
336;DHT22;156;48.738;9.228;2023-08-07T07:40:37;12.90;1.00
336;DHT22;156;48.738;9.228;2023-08-07T07:43:04;12.90;1.00
336;DHT22;156;48.738;9.228;2023-08-07T07:45:31;13.00;1.00
336;DHT22;156;48.738;9.228;2023-08-07T07:47:59;13.10;1.00
336;DHT22;156;48.738;9.228;2023-08-07T07:50:26;13.10;1.00
336;DHT22;156;48.738;9.228;2023-08-07T07:52:53;13.20;1.00
336;DHT22;156;48.738;9.228;2023-08-07T07:55:21;13.30;1.00
336;DHT22;156;48.738;9.228;2023-08-07T07:57:48;13.30;1.00
336;DHT22;156;48.738;9.228;2023-08-07T08:00:15;13.50;1.00
336;DHT22;156;48.738;9.228;2023-08-07T08:02:44;13.60;1.00
336;DHT22;156;48.738;9.228;2023-08-07T08:05:11;13.50;1.00
336;DHT22;156;48.738;9.228;2023-08-07T08:07:39;13.50;1.00
336;DHT22;156;48.738;9.228;2023-08-07T08:10:07;13.50;1.00
336;DHT22;156;48.738;9.228;2023-08-07T08:12:35;13.60;1.00
336;DHT22;156;48.738;9.228;2023-08-07T08:15:03;13.70;1.00
336;DHT22;156;48.738;9.228;2023-08-07T08:17:30;13.70;1.00
336;DHT22;156;48.738;9.228;2023-08-07T08:19:57;13.80;1.00
336;DHT22;156;48.738;9.228;2023-08-07T08:22:24;13.60;1.00
336;DHT22;156;48.738;9.228;2023-08-07T08:24:51;13.60;1.00
336;DHT22;156;48.738;9.228;2023-08-07T08:27:18;13.70;1.00
336;DHT22;156;48.738;9.228;2023-08-07T08:29:46;13.60;1.00
336;DHT22;156;48.738;9.228;2023-08-07T08:32:13;13.40;1.00
336;DHT22;156;48.738;9.228;2023-08-07T08:34:40;13.50;1.00
336;DHT22;156;48.738;9.228;2023-08-07T08:37:07;13.50;1.00
336;DHT22;156;48.738;9.228;2023-08-07T08:39:36;13.50;1.00
336;DHT22;156;48.738;9.228;2023-08-07T08:42:03;13.70;1.00
336;DHT22;156;48.738;9.228;2023-08-07T08:44:31;13.70;1.00
336;DHT22;156;48.738;9.228;2023-08-07T08:47:03;13.80;1.00
336;DHT22;156;48.738;9.228;2023-08-07T08:49:35;14.00;1.00
336;DHT22;156;48.738;9.228;2023-08-07T08:52:03;14.00;1.00
336;DHT22;156;48.738;9.228;2023-08-07T08:54:30;14.00;1.00
336;DHT22;156;48.738;9.228;2023-08-07T08:56:59;14.00;1.00
336;DHT22;156;48.738;9.228;2023-08-07T08:59:26;14.00;1.00
336;DHT22;156;48.738;9.228;2023-08-07T09:01:53;14.30;1.00
336;DHT22;156;48.738;9.228;2023-08-07T09:04:22;14.30;1.00
336;DHT22;156;48.738;9.228;2023-08-07T09:06:52;14.40;1.00
336;DHT22;156;48.738;9.228;2023-08-07T09:09:21;14.40;1.00
336;DHT22;156;48.738;9.228;2023-08-07T09:11:50;14.40;1.00
336;DHT22;156;48.738;9.228;2023-08-07T09:14:24;14.40;1.00
336;DHT22;156;48.738;9.228;2023-08-07T09:16:51;14.60;1.00
336;DHT22;156;48.738;9.228;2023-08-07T09:19:18;14.80;1.00
336;DHT22;156;48.738;9.228;2023-08-07T09:21:47;14.80;1.00
336;DHT22;156;48.738;9.228;2023-08-07T09:24:14;14.80;1.00
336;DHT22;156;48.738;9.228;2023-08-07T09:26:44;14.90;1.00
336;DHT22;156;48.738;9.228;2023-08-07T09:29:11;14.40;1.00
336;DHT22;156;48.738;9.228;2023-08-07T09:31:38;14.40;1.00
336;DHT22;156;48.738;9.228;2023-08-07T09:34:05;14.30;1.00
336;DHT22;156;48.738;9.228;2023-08-07T09:36:35;14.40;1.00
336;DHT22;156;48.738;9.228;2023-08-07T09:39:03;14.70;1.00
336;DHT22;156;48.738;9.228;2023-08-07T09:41:31;14.70;1.00
336;DHT22;156;48.738;9.228;2023-08-07T09:43:58;14.80;1.00
336;DHT22;156;48.738;9.228;2023-08-07T09:46:28;15.00;1.00
336;DHT22;156;48.738;9.228;2023-08-07T09:49:02;15.10;1.00
336;DHT22;156;48.738;9.228;2023-08-07T09:51:41;15.20;1.00
336;DHT22;156;48.738;9.228;2023-08-07T09:54:09;15.10;1.00
336;DHT22;156;48.738;9.228;2023-08-07T09:56:36;15.10;1.00
336;DHT22;156;48.738;9.228;2023-08-07T09:59:04;15.00;1.00
336;DHT22;156;48.738;9.228;2023-08-07T10:01:32;14.90;1.00
336;DHT22;156;48.738;9.228;2023-08-07T10:03:59;14.80;1.00
336;DHT22;156;48.738;9.228;2023-08-07T10:06:26;14.80;1.00
336;DHT22;156;48.738;9.228;2023-08-07T10:08:54;14.70;1.00
336;DHT22;156;48.738;9.228;2023-08-07T10:11:23;14.80;1.00
336;DHT22;156;48.738;9.228;2023-08-07T10:13:50;15.00;1.00
336;DHT22;156;48.738;9.228;2023-08-07T10:16:17;14.90;1.00
336;DHT22;156;48.738;9.228;2023-08-07T10:18:44;14.90;1.00
336;DHT22;156;48.738;9.228;2023-08-07T10:21:11;15.00;1.00
336;DHT22;156;48.738;9.228;2023-08-07T10:23:39;15.20;1.00
336;DHT22;156;48.738;9.228;2023-08-07T10:26:09;15.40;1.00
336;DHT22;156;48.738;9.228;2023-08-07T10:28:39;15.20;1.00
336;DHT22;156;48.738;9.228;2023-08-07T10:31:07;15.30;1.00
336;DHT22;156;48.738;9.228;2023-08-07T10:33:34;16.10;1.00
336;DHT22;156;48.738;9.228;2023-08-07T10:36:08;15.30;1.00
336;DHT22;156;48.738;9.228;2023-08-07T10:38:36;15.40;1.00
336;DHT22;156;48.738;9.228;2023-08-07T10:41:07;15.30;1.00
336;DHT22;156;48.738;9.228;2023-08-07T10:43:38;15.40;1.00
336;DHT22;156;48.738;9.228;2023-08-07T10:46:06;15.40;1.00
336;DHT22;156;48.738;9.228;2023-08-07T10:48:42;15.40;1.00
336;DHT22;156;48.738;9.228;2023-08-07T10:51:12;15.30;1.00
336;DHT22;156;48.738;9.228;2023-08-07T10:53:40;15.20;1.00
336;DHT22;156;48.738;9.228;2023-08-07T10:56:10;15.10;1.00
336;DHT22;156;48.738;9.228;2023-08-07T10:58:40;15.30;1.00
336;DHT22;156;48.738;9.228;2023-08-07T11:01:21;15.30;1.00
336;DHT22;156;48.738;9.228;2023-08-07T11:03:52;15.30;1.00
336;DHT22;156;48.738;9.228;2023-08-07T11:06:22;15.30;1.00
336;DHT22;156;48.738;9.228;2023-08-07T11:08:50;15.30;1.00
336;DHT22;156;48.738;9.228;2023-08-07T11:11:17;15.50;1.00
336;DHT22;156;48.738;9.228;2023-08-07T11:13:45;15.70;1.00
336;DHT22;156;48.738;9.228;2023-08-07T11:16:12;15.70;1.00
336;DHT22;156;48.738;9.228;2023-08-07T11:18:43;15.60;1.00
336;DHT22;156;48.738;9.228;2023-08-07T11:21:11;15.60;1.00
336;DHT22;156;48.738;9.228;2023-08-07T11:23:38;15.30;1.00
336;DHT22;156;48.738;9.228;2023-08-07T11:26:06;15.30;1.00
336;DHT22;156;48.738;9.228;2023-08-07T11:28:33;15.30;1.00
336;DHT22;156;48.738;9.228;2023-08-07T11:31:01;15.20;1.00
336;DHT22;156;48.738;9.228;2023-08-07T11:33:29;14.40;1.00
336;DHT22;156;48.738;9.228;2023-08-07T11:35:56;15.10;1.00
336;DHT22;156;48.738;9.228;2023-08-07T11:38:31;15.00;1.00
336;DHT22;156;48.738;9.228;2023-08-07T11:40:59;15.00;1.00
336;DHT22;156;48.738;9.228;2023-08-07T11:43:27;14.80;1.00
336;DHT22;156;48.738;9.228;2023-08-07T11:45:56;14.80;1.00
336;DHT22;156;48.738;9.228;2023-08-07T11:48:26;14.80;1.00
336;DHT22;156;48.738;9.228;2023-08-07T11:50:56;14.80;1.00
336;DHT22;156;48.738;9.228;2023-08-07T11:53:25;14.80;1.00
336;DHT22;156;48.738;9.228;2023-08-07T11:55:53;14.80;1.00
336;DHT22;156;48.738;9.228;2023-08-07T11:58:22;14.80;1.00
336;DHT22;156;48.738;9.228;2023-08-07T12:00:50;14.80;1.00
336;DHT22;156;48.738;9.228;2023-08-07T12:03:27;14.80;1.00
336;DHT22;156;48.738;9.228;2023-08-07T12:05:56;14.80;1.00
336;DHT22;156;48.738;9.228;2023-08-07T12:08:23;14.80;1.00
336;DHT22;156;48.738;9.228;2023-08-07T12:10:50;14.80;1.00
336;DHT22;156;48.738;9.228;2023-08-07T12:13:20;14.70;1.00
336;DHT22;156;48.738;9.228;2023-08-07T12:15:51;14.60;1.00
336;DHT22;156;48.738;9.228;2023-08-07T12:18:19;14.70;1.00
336;DHT22;156;48.738;9.228;2023-08-07T12:20:49;14.70;1.00
336;DHT22;156;48.738;9.228;2023-08-07T12:23:16;14.70;1.00
336;DHT22;156;48.738;9.228;2023-08-07T12:25:43;14.70;1.00
336;DHT22;156;48.738;9.228;2023-08-07T12:28:10;14.80;1.00
336;DHT22;156;48.738;9.228;2023-08-07T12:30:38;14.70;1.00
336;DHT22;156;48.738;9.228;2023-08-07T12:33:05;14.60;1.00
336;DHT22;156;48.738;9.228;2023-08-07T12:35:33;14.40;1.00
336;DHT22;156;48.738;9.228;2023-08-07T12:38:02;14.40;1.00
336;DHT22;156;48.738;9.228;2023-08-07T12:40:29;14.30;1.00
336;DHT22;156;48.738;9.228;2023-08-07T12:42:57;14.30;1.00
336;DHT22;156;48.738;9.228;2023-08-07T12:45:24;14.50;1.00
336;DHT22;156;48.738;9.228;2023-08-07T12:47:51;14.80;1.00
336;DHT22;156;48.738;9.228;2023-08-07T12:50:18;14.80;1.00
336;DHT22;156;48.738;9.228;2023-08-07T12:52:46;14.90;1.00
336;DHT22;156;48.738;9.228;2023-08-07T12:55:15;15.20;1.00
336;DHT22;156;48.738;9.228;2023-08-07T12:57:42;15.50;1.00
336;DHT22;156;48.738;9.228;2023-08-07T13:00:10;15.60;1.00
336;DHT22;156;48.738;9.228;2023-08-07T13:02:40;15.80;1.00
336;DHT22;156;48.738;9.228;2023-08-07T13:05:08;15.90;1.00
336;DHT22;156;48.738;9.228;2023-08-07T13:07:36;16.10;1.00
336;DHT22;156;48.738;9.228;2023-08-07T13:10:08;15.70;1.00
336;DHT22;156;48.738;9.228;2023-08-07T13:12:40;15.70;1.00
336;DHT22;156;48.738;9.228;2023-08-07T13:15:09;16.00;1.00
336;DHT22;156;48.738;9.228;2023-08-07T13:17:37;16.00;1.00
336;DHT22;156;48.738;9.228;2023-08-07T13:20:06;16.20;1.00
336;DHT22;156;48.738;9.228;2023-08-07T13:22:34;16.30;1.00
336;DHT22;156;48.738;9.228;2023-08-07T13:25:01;16.30;1.00
336;DHT22;156;48.738;9.228;2023-08-07T13:27:29;16.30;1.00
336;DHT22;156;48.738;9.228;2023-08-07T13:29:57;16.20;1.00
336;DHT22;156;48.738;9.228;2023-08-07T13:32:25;16.20;1.00
336;DHT22;156;48.738;9.228;2023-08-07T13:34:52;16.20;1.00
336;DHT22;156;48.738;9.228;2023-08-07T13:37:19;16.20;1.00
336;DHT22;156;48.738;9.228;2023-08-07T13:39:46;15.90;1.00
336;DHT22;156;48.738;9.228;2023-08-07T13:42:17;16.00;1.00
336;DHT22;156;48.738;9.228;2023-08-07T13:44:44;15.90;1.00
336;DHT22;156;48.738;9.228;2023-08-07T13:47:12;15.90;1.00
336;DHT22;156;48.738;9.228;2023-08-07T13:49:40;15.90;1.00
336;DHT22;156;48.738;9.228;2023-08-07T13:52:07;15.90;1.00
336;DHT22;156;48.738;9.228;2023-08-07T13:54:34;16.00;1.00
336;DHT22;156;48.738;9.228;2023-08-07T13:57:01;16.40;1.00
336;DHT22;156;48.738;9.228;2023-08-07T13:59:28;16.90;1.00
336;DHT22;156;48.738;9.228;2023-08-07T14:01:55;16.90;1.00
336;DHT22;156;48.738;9.228;2023-08-07T14:04:24;16.80;1.00
336;DHT22;156;48.738;9.228;2023-08-07T14:06:51;17.00;1.00
336;DHT22;156;48.738;9.228;2023-08-07T14:09:18;17.10;1.00
336;DHT22;156;48.738;9.228;2023-08-07T14:11:47;17.10;1.00
336;DHT22;156;48.738;9.228;2023-08-07T14:14:14;16.80;1.00
336;DHT22;156;48.738;9.228;2023-08-07T14:16:41;16.80;1.00
336;DHT22;156;48.738;9.228;2023-08-07T14:19:08;16.90;1.00
336;DHT22;156;48.738;9.228;2023-08-07T14:21:36;17.00;1.00
336;DHT22;156;48.738;9.228;2023-08-07T14:24:05;17.00;1.00
336;DHT22;156;48.738;9.228;2023-08-07T14:26:32;17.20;1.00
336;DHT22;156;48.738;9.228;2023-08-07T14:28:59;17.50;1.00
336;DHT22;156;48.738;9.228;2023-08-07T14:31:26;17.40;1.00
336;DHT22;156;48.738;9.228;2023-08-07T14:33:53;17.30;1.00
336;DHT22;156;48.738;9.228;2023-08-07T14:36:20;17.20;1.00
336;DHT22;156;48.738;9.228;2023-08-07T14:38:48;17.00;1.00
336;DHT22;156;48.738;9.228;2023-08-07T14:41:15;17.00;1.00
336;DHT22;156;48.738;9.228;2023-08-07T14:43:42;16.70;1.00
336;DHT22;156;48.738;9.228;2023-08-07T14:46:09;16.70;1.00
336;DHT22;156;48.738;9.228;2023-08-07T14:48:36;16.70;1.00
336;DHT22;156;48.738;9.228;2023-08-07T14:51:04;16.70;1.00
336;DHT22;156;48.738;9.228;2023-08-07T14:53:31;16.80;1.00
336;DHT22;156;48.738;9.228;2023-08-07T14:55:59;16.80;1.00
336;DHT22;156;48.738;9.228;2023-08-07T14:58:26;16.90;1.00
336;DHT22;156;48.738;9.228;2023-08-07T15:00:54;17.00;1.00
336;DHT22;156;48.738;9.228;2023-08-07T15:03:23;16.90;1.00
336;DHT22;156;48.738;9.228;2023-08-07T15:05:50;17.30;1.00
336;DHT22;156;48.738;9.228;2023-08-07T15:08:17;17.10;1.00
336;DHT22;156;48.738;9.228;2023-08-07T15:10:44;17.20;1.00
336;DHT22;156;48.738;9.228;2023-08-07T15:13:12;17.80;1.00
336;DHT22;156;48.738;9.228;2023-08-07T15:15:39;17.90;1.00
336;DHT22;156;48.738;9.228;2023-08-07T15:18:06;18.00;1.00
336;DHT22;156;48.738;9.228;2023-08-07T15:20:34;18.30;1.00
336;DHT22;156;48.738;9.228;2023-08-07T15:23:02;18.60;1.00
336;DHT22;156;48.738;9.228;2023-08-07T15:25:29;18.60;1.00
336;DHT22;156;48.738;9.228;2023-08-07T15:27:56;18.20;1.00
336;DHT22;156;48.738;9.228;2023-08-07T15:30:27;17.80;1.00
336;DHT22;156;48.738;9.228;2023-08-07T15:32:56;17.70;1.00
336;DHT22;156;48.738;9.228;2023-08-07T15:35:23;17.40;1.00
336;DHT22;156;48.738;9.228;2023-08-07T15:37:51;17.00;1.00
336;DHT22;156;48.738;9.228;2023-08-07T15:40:20;16.90;1.00
336;DHT22;156;48.738;9.228;2023-08-07T15:42:47;16.90;1.00
336;DHT22;156;48.738;9.228;2023-08-07T15:45:14;16.90;1.00
336;DHT22;156;48.738;9.228;2023-08-07T15:47:43;17.00;1.00
336;DHT22;156;48.738;9.228;2023-08-07T15:50:10;17.10;1.00
336;DHT22;156;48.738;9.228;2023-08-07T15:52:36;16.90;1.00
336;DHT22;156;48.738;9.228;2023-08-07T15:55:07;16.90;1.00
336;DHT22;156;48.738;9.228;2023-08-07T15:57:38;17.00;1.00
336;DHT22;156;48.738;9.228;2023-08-07T16:00:06;17.00;1.00
336;DHT22;156;48.738;9.228;2023-08-07T16:02:39;17.10;1.00
336;DHT22;156;48.738;9.228;2023-08-07T16:05:07;17.10;1.00
336;DHT22;156;48.738;9.228;2023-08-07T16:07:36;17.10;1.00
336;DHT22;156;48.738;9.228;2023-08-07T16:10:07;17.10;1.00
336;DHT22;156;48.738;9.228;2023-08-07T16:12:35;18.00;1.00
336;DHT22;156;48.738;9.228;2023-08-07T16:15:02;16.90;1.00
336;DHT22;156;48.738;9.228;2023-08-07T16:17:29;17.00;1.00
336;DHT22;156;48.738;9.228;2023-08-07T16:19:58;16.80;1.00
336;DHT22;156;48.738;9.228;2023-08-07T16:22:28;17.00;1.00
336;DHT22;156;48.738;9.228;2023-08-07T16:24:55;17.50;1.00
336;DHT22;156;48.738;9.228;2023-08-07T16:27:24;17.80;1.00
336;DHT22;156;48.738;9.228;2023-08-07T16:29:59;18.20;1.00
336;DHT22;156;48.738;9.228;2023-08-07T16:32:29;18.90;1.00
336;DHT22;156;48.738;9.228;2023-08-07T16:34:59;19.00;1.00
336;DHT22;156;48.738;9.228;2023-08-07T16:37:28;19.20;1.00
336;DHT22;156;48.738;9.228;2023-08-07T16:39:56;19.00;1.00
336;DHT22;156;48.738;9.228;2023-08-07T16:42:23;19.50;1.00
336;DHT22;156;48.738;9.228;2023-08-07T16:44:50;20.10;1.00
336;DHT22;156;48.738;9.228;2023-08-07T16:47:17;19.90;1.00
336;DHT22;156;48.738;9.228;2023-08-07T16:49:44;19.20;1.00
336;DHT22;156;48.738;9.228;2023-08-07T16:52:11;18.90;1.00